sensor_id;sensor_type;location;lat;lon;timestamp;P1;durP1;ratioP1;P2;durP2;ratioP2
830;SDS011;397;50.564;7.272;2022-08-01T00:02:07;2.90;;;1.83;;
830;SDS011;397;50.564;7.272;2022-08-01T00:04:34;2.90;;;1.70;;
830;SDS011;397;50.564;7.272;2022-08-01T00:07:02;2.70;;;1.80;;
830;SDS011;397;50.564;7.272;2022-08-01T00:09:30;3.80;;;1.90;;
830;SDS011;397;50.564;7.272;2022-08-01T00:11:57;2.90;;;2.00;;
830;SDS011;397;50.564;7.272;2022-08-01T00:14:25;3.37;;;2.53;;
830;SDS011;397;50.564;7.272;2022-08-01T00:16:53;6.30;;;1.73;;
830;SDS011;397;50.564;7.272;2022-08-01T00:19:20;2.90;;;1.80;;
830;SDS011;397;50.564;7.272;2022-08-01T00:21:48;3.00;;;1.60;;
830;SDS011;397;50.564;7.272;2022-08-01T00:24:15;3.53;;;1.80;;
830;SDS011;397;50.564;7.272;2022-08-01T00:26:43;2.70;;;1.57;;
830;SDS011;397;50.564;7.272;2022-08-01T00:29:10;5.93;;;2.40;;
830;SDS011;397;50.564;7.272;2022-08-01T00:31:38;2.87;;;1.50;;
830;SDS011;397;50.564;7.272;2022-08-01T00:34:05;3.70;;;1.67;;
830;SDS011;397;50.564;7.272;2022-08-01T00:36:33;4.57;;;1.83;;
830;SDS011;397;50.564;7.272;2022-08-01T00:39:00;2.80;;;1.37;;
830;SDS011;397;50.564;7.272;2022-08-01T00:41:28;2.90;;;1.90;;
830;SDS011;397;50.564;7.272;2022-08-01T00:43:55;2.83;;;1.70;;
830;SDS011;397;50.564;7.272;2022-08-01T00:46:23;3.73;;;2.10;;
830;SDS011;397;50.564;7.272;2022-08-01T00:48:50;2.90;;;1.90;;
830;SDS011;397;50.564;7.272;2022-08-01T00:51:19;2.63;;;1.73;;
830;SDS011;397;50.564;7.272;2022-08-01T00:53:46;3.53;;;1.87;;
830;SDS011;397;50.564;7.272;2022-08-01T00:56:14;4.10;;;1.90;;
830;SDS011;397;50.564;7.272;2022-08-01T00:58:41;3.20;;;1.93;;
830;SDS011;397;50.564;7.272;2022-08-01T01:01:09;3.30;;;1.57;;
830;SDS011;397;50.564;7.272;2022-08-01T01:03:37;3.03;;;1.87;;
830;SDS011;397;50.564;7.272;2022-08-01T01:06:07;2.90;;;1.97;;
830;SDS011;397;50.564;7.272;2022-08-01T01:11:36;4.37;;;1.90;;
830;SDS011;397;50.564;7.272;2022-08-01T01:14:21;4.20;;;2.40;;
830;SDS011;397;50.564;7.272;2022-08-01T01:16:49;3.40;;;1.90;;
830;SDS011;397;50.564;7.272;2022-08-01T01:19:20;2.67;;;1.70;;
830;SDS011;397;50.564;7.272;2022-08-01T01:21:56;4.40;;;2.00;;
830;SDS011;397;50.564;7.272;2022-08-01T01:24:28;3.00;;;1.70;;
830;SDS011;397;50.564;7.272;2022-08-01T01:27:48;3.37;;;1.80;;
830;SDS011;397;50.564;7.272;2022-08-01T01:29:56;3.20;;;1.80;;
830;SDS011;397;50.564;7.272;2022-08-01T01:32:35;2.83;;;1.90;;
830;SDS011;397;50.564;7.272;2022-08-01T01:35:17;4.37;;;2.10;;
830;SDS011;397;50.564;7.272;2022-08-01T01:37:46;2.90;;;1.93;;
830;SDS011;397;50.564;7.272;2022-08-01T01:40:16;3.67;;;2.30;;
830;SDS011;397;50.564;7.272;2022-08-01T01:42:44;3.77;;;1.93;;
830;SDS011;397;50.564;7.272;2022-08-01T01:45:13;3.40;;;2.17;;
830;SDS011;397;50.564;7.272;2022-08-01T01:47:42;5.97;;;2.40;;
830;SDS011;397;50.564;7.272;2022-08-01T01:50:11;4.20;;;2.20;;
830;SDS011;397;50.564;7.272;2022-08-01T01:52:40;4.10;;;1.90;;
830;SDS011;397;50.564;7.272;2022-08-01T01:55:10;3.33;;;2.10;;
830;SDS011;397;50.564;7.272;2022-08-01T01:57:40;5.70;;;2.20;;
830;SDS011;397;50.564;7.272;2022-08-01T02:00:09;2.43;;;1.93;;
830;SDS011;397;50.564;7.272;2022-08-01T02:02:39;5.80;;;2.57;;
830;SDS011;397;50.564;7.272;2022-08-01T02:05:08;3.50;;;2.20;;
830;SDS011;397;50.564;7.272;2022-08-01T02:07:37;3.53;;;2.40;;
830;SDS011;397;50.564;7.272;2022-08-01T02:10:07;3.10;;;2.13;;
830;SDS011;397;50.564;7.272;2022-08-01T02:12:36;3.33;;;2.20;;
830;SDS011;397;50.564;7.272;2022-08-01T02:15:05;2.97;;;2.10;;
830;SDS011;397;50.564;7.272;2022-08-01T02:17:37;4.30;;;2.33;;
830;SDS011;397;50.564;7.272;2022-08-01T02:20:05;3.20;;;2.33;;
830;SDS011;397;50.564;7.272;2022-08-01T02:22:35;5.37;;;2.27;;
830;SDS011;397;50.564;7.272;2022-08-01T02:27:45;3.50;;;2.57;;
830;SDS011;397;50.564;7.272;2022-08-01T02:30:14;5.03;;;2.70;;
830;SDS011;397;50.564;7.272;2022-08-01T02:32:44;3.80;;;2.03;;
830;SDS011;397;50.564;7.272;2022-08-01T02:35:13;3.30;;;2.07;;
830;SDS011;397;50.564;7.272;2022-08-01T02:37:53;4.10;;;2.30;;
830;SDS011;397;50.564;7.272;2022-08-01T02:40:22;5.67;;;2.03;;
830;SDS011;397;50.564;7.272;2022-08-01T02:42:52;2.90;;;1.70;;
830;SDS011;397;50.564;7.272;2022-08-01T02:45:22;3.40;;;2.20;;
830;SDS011;397;50.564;7.272;2022-08-01T02:47:51;4.27;;;2.10;;
830;SDS011;397;50.564;7.272;2022-08-01T02:50:24;2.60;;;1.40;;
830;SDS011;397;50.564;7.272;2022-08-01T02:52:55;4.13;;;1.90;;
830;SDS011;397;50.564;7.272;2022-08-01T02:55:24;3.30;;;1.80;;
830;SDS011;397;50.564;7.272;2022-08-01T02:57:53;2.53;;;1.87;;
830;SDS011;397;50.564;7.272;2022-08-01T03:00:23;3.33;;;2.10;;
830;SDS011;397;50.564;7.272;2022-08-01T03:02:51;3.60;;;2.30;;
830;SDS011;397;50.564;7.272;2022-08-01T03:05:20;4.23;;;2.30;;
830;SDS011;397;50.564;7.272;2022-08-01T03:07:49;2.83;;;2.03;;
830;SDS011;397;50.564;7.272;2022-08-01T03:10:19;3.30;;;2.47;;
830;SDS011;397;50.564;7.272;2022-08-01T03:12:47;4.60;;;2.30;;
830;SDS011;397;50.564;7.272;2022-08-01T03:15:16;3.43;;;2.00;;
830;SDS011;397;50.564;7.272;2022-08-01T03:17:45;3.97;;;2.30;;
830;SDS011;397;50.564;7.272;2022-08-01T03:20:15;3.93;;;2.50;;
830;SDS011;397;50.564;7.272;2022-08-01T03:22:44;5.60;;;2.57;;
830;SDS011;397;50.564;7.272;2022-08-01T03:25:14;3.50;;;2.67;;
830;SDS011;397;50.564;7.272;2022-08-01T03:27:43;3.03;;;2.23;;
830;SDS011;397;50.564;7.272;2022-08-01T03:30:14;4.93;;;2.63;;
830;SDS011;397;50.564;7.272;2022-08-01T03:32:41;4.50;;;2.90;;
830;SDS011;397;50.564;7.272;2022-08-01T03:35:09;7.27;;;3.00;;
830;SDS011;397;50.564;7.272;2022-08-01T03:37:44;5.10;;;3.70;;
830;SDS011;397;50.564;7.272;2022-08-01T03:40:23;6.97;;;3.60;;
830;SDS011;397;50.564;7.272;2022-08-01T03:42:56;4.87;;;3.43;;
830;SDS011;397;50.564;7.272;2022-08-01T03:45:24;5.07;;;2.90;;
830;SDS011;397;50.564;7.272;2022-08-01T03:47:59;4.80;;;4.03;;
830;SDS011;397;50.564;7.272;2022-08-01T03:50:26;3.60;;;3.23;;
830;SDS011;397;50.564;7.272;2022-08-01T03:52:57;4.37;;;3.97;;
830;SDS011;397;50.564;7.272;2022-08-01T03:55:28;3.80;;;3.40;;
830;SDS011;397;50.564;7.272;2022-08-01T03:57:57;4.20;;;3.27;;
830;SDS011;397;50.564;7.272;2022-08-01T04:00:26;4.63;;;3.30;;
830;SDS011;397;50.564;7.272;2022-08-01T04:02:54;6.80;;;3.67;;
830;SDS011;397;50.564;7.272;2022-08-01T04:05:24;6.43;;;4.27;;
830;SDS011;397;50.564;7.272;2022-08-01T04:07:51;5.93;;;3.60;;
830;SDS011;397;50.564;7.272;2022-08-01T04:10:22;4.53;;;3.43;;
830;SDS011;397;50.564;7.272;2022-08-01T04:12:50;7.30;;;3.70;;
830;SDS011;397;50.564;7.272;2022-08-01T04:15:17;6.00;;;3.53;;
830;SDS011;397;50.564;7.272;2022-08-01T04:17:46;4.80;;;3.50;;
830;SDS011;397;50.564;7.272;2022-08-01T04:20:13;5.73;;;4.83;;
830;SDS011;397;50.564;7.272;2022-08-01T04:22:41;5.60;;;4.10;;
830;SDS011;397;50.564;7.272;2022-08-01T04:25:11;5.30;;;3.90;;
830;SDS011;397;50.564;7.272;2022-08-01T04:27:40;5.70;;;4.10;;
830;SDS011;397;50.564;7.272;2022-08-01T04:30:10;5.63;;;4.30;;
830;SDS011;397;50.564;7.272;2022-08-01T04:32:40;8.27;;;4.37;;
830;SDS011;397;50.564;7.272;2022-08-01T04:35:11;6.23;;;4.13;;
830;SDS011;397;50.564;7.272;2022-08-01T04:37:42;4.60;;;4.20;;
830;SDS011;397;50.564;7.272;2022-08-01T04:40:12;6.23;;;5.00;;
830;SDS011;397;50.564;7.272;2022-08-01T04:42:41;4.57;;;3.87;;
830;SDS011;397;50.564;7.272;2022-08-01T04:45:09;11.13;;;5.07;;
830;SDS011;397;50.564;7.272;2022-08-01T04:47:38;6.23;;;4.73;;
830;SDS011;397;50.564;7.272;2022-08-01T04:50:07;5.57;;;4.90;;
830;SDS011;397;50.564;7.272;2022-08-01T04:52:36;5.03;;;4.43;;
830;SDS011;397;50.564;7.272;2022-08-01T04:55:06;5.83;;;5.10;;
830;SDS011;397;50.564;7.272;2022-08-01T04:57:36;5.90;;;5.40;;
830;SDS011;397;50.564;7.272;2022-08-01T05:00:06;8.90;;;5.60;;
830;SDS011;397;50.564;7.272;2022-08-01T05:02:36;5.37;;;4.33;;
830;SDS011;397;50.564;7.272;2022-08-01T05:05:04;7.20;;;5.73;;
830;SDS011;397;50.564;7.272;2022-08-01T05:07:32;6.07;;;5.30;;
830;SDS011;397;50.564;7.272;2022-08-01T05:10:05;5.83;;;5.23;;
830;SDS011;397;50.564;7.272;2022-08-01T05:12:33;5.13;;;4.57;;
830;SDS011;397;50.564;7.272;2022-08-01T05:15:01;5.70;;;4.90;;
830;SDS011;397;50.564;7.272;2022-08-01T05:17:29;9.50;;;5.33;;
830;SDS011;397;50.564;7.272;2022-08-01T05:19:57;6.43;;;5.60;;
830;SDS011;397;50.564;7.272;2022-08-01T05:22:24;9.17;;;6.00;;
830;SDS011;397;50.564;7.272;2022-08-01T05:24:52;7.30;;;5.50;;
830;SDS011;397;50.564;7.272;2022-08-01T05:27:20;5.07;;;4.57;;
830;SDS011;397;50.564;7.272;2022-08-01T05:29:48;7.07;;;5.90;;
830;SDS011;397;50.564;7.272;2022-08-01T05:32:15;6.00;;;5.10;;
830;SDS011;397;50.564;7.272;2022-08-01T05:34:43;5.00;;;4.50;;
830;SDS011;397;50.564;7.272;2022-08-01T05:37:10;5.40;;;4.90;;
830;SDS011;397;50.564;7.272;2022-08-01T05:39:38;8.60;;;5.00;;
830;SDS011;397;50.564;7.272;2022-08-01T05:42:05;6.33;;;5.10;;
830;SDS011;397;50.564;7.272;2022-08-01T05:44:33;4.97;;;4.47;;
830;SDS011;397;50.564;7.272;2022-08-01T05:47:00;5.20;;;4.70;;
830;SDS011;397;50.564;7.272;2022-08-01T05:49:28;6.17;;;5.57;;
830;SDS011;397;50.564;7.272;2022-08-01T05:51:56;7.87;;;5.87;;
830;SDS011;397;50.564;7.272;2022-08-01T05:54:23;8.17;;;5.90;;
830;SDS011;397;50.564;7.272;2022-08-01T05:56:51;6.67;;;5.37;;
830;SDS011;397;50.564;7.272;2022-08-01T05:59:18;7.73;;;6.50;;
830;SDS011;397;50.564;7.272;2022-08-01T06:01:46;6.53;;;5.93;;
830;SDS011;397;50.564;7.272;2022-08-01T06:04:13;8.27;;;7.40;;
830;SDS011;397;50.564;7.272;2022-08-01T06:06:41;7.77;;;6.97;;
830;SDS011;397;50.564;7.272;2022-08-01T06:09:08;8.17;;;7.43;;
830;SDS011;397;50.564;7.272;2022-08-01T06:11:36;6.33;;;5.73;;
830;SDS011;397;50.564;7.272;2022-08-01T06:14:04;8.20;;;6.60;;
830;SDS011;397;50.564;7.272;2022-08-01T06:16:32;7.63;;;6.50;;
830;SDS011;397;50.564;7.272;2022-08-01T06:18:59;7.53;;;6.83;;
830;SDS011;397;50.564;7.272;2022-08-01T06:21:27;10.10;;;6.73;;
830;SDS011;397;50.564;7.272;2022-08-01T06:23:54;8.10;;;6.27;;
830;SDS011;397;50.564;7.272;2022-08-01T06:26:22;8.90;;;6.10;;
830;SDS011;397;50.564;7.272;2022-08-01T06:28:49;7.97;;;6.90;;
830;SDS011;397;50.564;7.272;2022-08-01T06:31:17;7.63;;;6.13;;
830;SDS011;397;50.564;7.272;2022-08-01T06:33:44;7.53;;;6.77;;
830;SDS011;397;50.564;7.272;2022-08-01T06:36:12;7.97;;;6.67;;
830;SDS011;397;50.564;7.272;2022-08-01T06:38:39;7.97;;;6.60;;
830;SDS011;397;50.564;7.272;2022-08-01T06:41:07;8.63;;;7.27;;
830;SDS011;397;50.564;7.272;2022-08-01T06:43:34;7.73;;;6.60;;
830;SDS011;397;50.564;7.272;2022-08-01T06:46:02;8.67;;;6.50;;
830;SDS011;397;50.564;7.272;2022-08-01T06:48:30;7.57;;;6.80;;
830;SDS011;397;50.564;7.272;2022-08-01T06:50:57;7.90;;;7.20;;
830;SDS011;397;50.564;7.272;2022-08-01T06:53:35;12.93;;;6.73;;
830;SDS011;397;50.564;7.272;2022-08-01T06:56:04;8.83;;;7.90;;
830;SDS011;397;50.564;7.272;2022-08-01T06:58:34;8.90;;;6.97;;
830;SDS011;397;50.564;7.272;2022-08-01T07:01:02;8.60;;;6.90;;
830;SDS011;397;50.564;7.272;2022-08-01T07:03:33;9.13;;;6.10;;
830;SDS011;397;50.564;7.272;2022-08-01T07:06:01;9.40;;;6.40;;
830;SDS011;397;50.564;7.272;2022-08-01T07:08:29;7.13;;;6.30;;
830;SDS011;397;50.564;7.272;2022-08-01T07:10:56;7.73;;;6.60;;
830;SDS011;397;50.564;7.272;2022-08-01T07:13:26;7.33;;;6.40;;
830;SDS011;397;50.564;7.272;2022-08-01T07:15:53;6.90;;;6.20;;
830;SDS011;397;50.564;7.272;2022-08-01T07:18:21;8.10;;;5.53;;
830;SDS011;397;50.564;7.272;2022-08-01T07:20:49;8.23;;;6.87;;
830;SDS011;397;50.564;7.272;2022-08-01T07:23:17;7.13;;;6.00;;
830;SDS011;397;50.564;7.272;2022-08-01T07:25:44;8.13;;;7.43;;
830;SDS011;397;50.564;7.272;2022-08-01T07:28:14;7.27;;;6.63;;
830;SDS011;397;50.564;7.272;2022-08-01T07:30:42;8.37;;;7.20;;
830;SDS011;397;50.564;7.272;2022-08-01T07:33:10;7.60;;;6.80;;
830;SDS011;397;50.564;7.272;2022-08-01T07:35:37;10.80;;;7.17;;
830;SDS011;397;50.564;7.272;2022-08-01T07:38:05;7.53;;;6.37;;
830;SDS011;397;50.564;7.272;2022-08-01T07:40:33;9.10;;;7.57;;
830;SDS011;397;50.564;7.272;2022-08-01T07:43:01;12.60;;;7.63;;
830;SDS011;397;50.564;7.272;2022-08-01T07:45:28;11.23;;;6.40;;
830;SDS011;397;50.564;7.272;2022-08-01T07:48:01;11.37;;;7.00;;
830;SDS011;397;50.564;7.272;2022-08-01T07:50:32;9.80;;;7.10;;
830;SDS011;397;50.564;7.272;2022-08-01T07:53:00;11.53;;;7.10;;
830;SDS011;397;50.564;7.272;2022-08-01T07:55:29;11.90;;;6.60;;
830;SDS011;397;50.564;7.272;2022-08-01T07:57:56;8.20;;;7.33;;
830;SDS011;397;50.564;7.272;2022-08-01T08:00:24;7.87;;;6.97;;
830;SDS011;397;50.564;7.272;2022-08-01T08:02:53;8.97;;;7.50;;
830;SDS011;397;50.564;7.272;2022-08-01T08:05:22;7.37;;;6.67;;
830;SDS011;397;50.564;7.272;2022-08-01T08:07:50;6.87;;;6.20;;
830;SDS011;397;50.564;7.272;2022-08-01T08:10:18;7.70;;;6.80;;
830;SDS011;397;50.564;7.272;2022-08-01T08:12:45;9.33;;;6.63;;
830;SDS011;397;50.564;7.272;2022-08-01T08:15:14;9.57;;;7.03;;
830;SDS011;397;50.564;7.272;2022-08-01T08:17:41;7.47;;;6.00;;
830;SDS011;397;50.564;7.272;2022-08-01T08:20:09;7.10;;;6.40;;
830;SDS011;397;50.564;7.272;2022-08-01T08:22:37;6.47;;;5.80;;
830;SDS011;397;50.564;7.272;2022-08-01T08:25:05;7.10;;;6.10;;
830;SDS011;397;50.564;7.272;2022-08-01T08:27:35;6.93;;;6.23;;
830;SDS011;397;50.564;7.272;2022-08-01T08:30:03;6.93;;;6.20;;
830;SDS011;397;50.564;7.272;2022-08-01T08:32:34;6.67;;;5.60;;
830;SDS011;397;50.564;7.272;2022-08-01T08:35:02;7.83;;;6.10;;
830;SDS011;397;50.564;7.272;2022-08-01T08:37:30;6.20;;;5.53;;
830;SDS011;397;50.564;7.272;2022-08-01T08:39:58;8.00;;;5.97;;
830;SDS011;397;50.564;7.272;2022-08-01T08:42:25;7.30;;;5.97;;
830;SDS011;397;50.564;7.272;2022-08-01T08:44:53;6.83;;;6.10;;
830;SDS011;397;50.564;7.272;2022-08-01T08:47:21;6.50;;;5.70;;
830;SDS011;397;50.564;7.272;2022-08-01T08:49:51;9.67;;;6.60;;
830;SDS011;397;50.564;7.272;2022-08-01T08:52:20;8.87;;;6.83;;
830;SDS011;397;50.564;7.272;2022-08-01T08:54:50;6.60;;;6.00;;
830;SDS011;397;50.564;7.272;2022-08-01T08:57:18;8.13;;;6.77;;
830;SDS011;397;50.564;7.272;2022-08-01T08:59:47;7.07;;;6.43;;
830;SDS011;397;50.564;7.272;2022-08-01T09:02:17;7.93;;;6.70;;
830;SDS011;397;50.564;7.272;2022-08-01T09:04:46;7.03;;;6.33;;
830;SDS011;397;50.564;7.272;2022-08-01T09:07:15;7.20;;;6.23;;
830;SDS011;397;50.564;7.272;2022-08-01T09:09:43;7.70;;;7.00;;
830;SDS011;397;50.564;7.272;2022-08-01T09:12:10;6.50;;;5.90;;
830;SDS011;397;50.564;7.272;2022-08-01T09:14:43;8.90;;;5.90;;
830;SDS011;397;50.564;7.272;2022-08-01T09:17:15;7.20;;;6.30;;
830;SDS011;397;50.564;7.272;2022-08-01T09:19:46;6.87;;;5.97;;
830;SDS011;397;50.564;7.272;2022-08-01T09:22:20;6.03;;;5.30;;
830;SDS011;397;50.564;7.272;2022-08-01T09:24:59;6.73;;;6.03;;
830;SDS011;397;50.564;7.272;2022-08-01T09:27:31;7.07;;;6.37;;
830;SDS011;397;50.564;7.272;2022-08-01T09:30:17;7.43;;;6.77;;
830;SDS011;397;50.564;7.272;2022-08-01T09:32:57;10.27;;;6.10;;
830;SDS011;397;50.564;7.272;2022-08-01T09:35:34;7.43;;;6.70;;
830;SDS011;397;50.564;7.272;2022-08-01T09:43:15;12.20;;;8.50;;
830;SDS011;397;50.564;7.272;2022-08-01T09:45:44;8.53;;;7.20;;
830;SDS011;397;50.564;7.272;2022-08-01T09:48:11;7.93;;;7.23;;
830;SDS011;397;50.564;7.272;2022-08-01T09:50:47;7.97;;;7.17;;
830;SDS011;397;50.564;7.272;2022-08-01T09:53:12;9.10;;;8.23;;
830;SDS011;397;50.564;7.272;2022-08-01T09:55:40;8.83;;;8.03;;
830;SDS011;397;50.564;7.272;2022-08-01T09:58:08;8.27;;;7.40;;
830;SDS011;397;50.564;7.272;2022-08-01T10:00:37;8.13;;;7.50;;
830;SDS011;397;50.564;7.272;2022-08-01T10:03:18;9.10;;;8.30;;
830;SDS011;397;50.564;7.272;2022-08-01T10:05:51;9.03;;;8.13;;
830;SDS011;397;50.564;7.272;2022-08-01T10:08:23;8.67;;;7.80;;
830;SDS011;397;50.564;7.272;2022-08-01T10:11:05;8.10;;;7.37;;
830;SDS011;397;50.564;7.272;2022-08-01T10:13:33;8.90;;;8.00;;
830;SDS011;397;50.564;7.272;2022-08-01T10:16:00;8.80;;;8.10;;
830;SDS011;397;50.564;7.272;2022-08-01T10:18:30;9.00;;;8.23;;
830;SDS011;397;50.564;7.272;2022-08-01T10:21:00;9.83;;;9.03;;
830;SDS011;397;50.564;7.272;2022-08-01T10:23:34;9.43;;;8.70;;
830;SDS011;397;50.564;7.272;2022-08-01T10:26:00;11.10;;;10.10;;
830;SDS011;397;50.564;7.272;2022-08-01T10:28:30;11.37;;;10.30;;
830;SDS011;397;50.564;7.272;2022-08-01T10:30:58;10.07;;;9.27;;
830;SDS011;397;50.564;7.272;2022-08-01T10:33:26;10.00;;;9.20;;
830;SDS011;397;50.564;7.272;2022-08-01T10:35:56;11.37;;;10.40;;
830;SDS011;397;50.564;7.272;2022-08-01T10:38:24;9.57;;;8.77;;
830;SDS011;397;50.564;7.272;2022-08-01T10:40:54;10.87;;;9.87;;
830;SDS011;397;50.564;7.272;2022-08-01T10:43:23;9.43;;;8.73;;
830;SDS011;397;50.564;7.272;2022-08-01T10:45:51;11.07;;;8.97;;
830;SDS011;397;50.564;7.272;2022-08-01T10:48:24;9.80;;;8.90;;
830;SDS011;397;50.564;7.272;2022-08-01T10:50:53;9.97;;;9.00;;
830;SDS011;397;50.564;7.272;2022-08-01T10:53:28;9.23;;;8.43;;
830;SDS011;397;50.564;7.272;2022-08-01T10:58:30;8.73;;;7.93;;
830;SDS011;397;50.564;7.272;2022-08-01T11:09:06;8.13;;;7.40;;
830;SDS011;397;50.564;7.272;2022-08-01T11:14:31;8.73;;;7.27;;
830;SDS011;397;50.564;7.272;2022-08-01T11:25:27;7.73;;;7.13;;
830;SDS011;397;50.564;7.272;2022-08-01T11:31:24;7.87;;;7.17;;
830;SDS011;397;50.564;7.272;2022-08-01T11:38:49;7.70;;;7.00;;
830;SDS011;397;50.564;7.272;2022-08-01T11:41:28;7.33;;;6.73;;
830;SDS011;397;50.564;7.272;2022-08-01T11:46:54;6.60;;;6.10;;
830;SDS011;397;50.564;7.272;2022-08-01T11:49:29;7.20;;;5.80;;
830;SDS011;397;50.564;7.272;2022-08-01T11:52:05;6.93;;;6.33;;
830;SDS011;397;50.564;7.272;2022-08-01T11:54:38;7.93;;;7.17;;
830;SDS011;397;50.564;7.272;2022-08-01T11:57:08;7.70;;;6.67;;
830;SDS011;397;50.564;7.272;2022-08-01T11:59:42;7.43;;;6.83;;
830;SDS011;397;50.564;7.272;2022-08-01T12:04:49;6.63;;;6.13;;
830;SDS011;397;50.564;7.272;2022-08-01T12:07:21;7.70;;;6.90;;
830;SDS011;397;50.564;7.272;2022-08-01T12:10:01;7.27;;;6.43;;
830;SDS011;397;50.564;7.272;2022-08-01T12:12:47;7.90;;;7.20;;
830;SDS011;397;50.564;7.272;2022-08-01T12:15:12;6.20;;;5.60;;
830;SDS011;397;50.564;7.272;2022-08-01T12:17:41;6.13;;;5.63;;
830;SDS011;397;50.564;7.272;2022-08-01T12:20:11;6.53;;;5.93;;
830;SDS011;397;50.564;7.272;2022-08-01T12:22:40;7.33;;;6.67;;
830;SDS011;397;50.564;7.272;2022-08-01T12:25:15;8.93;;;6.70;;
830;SDS011;397;50.564;7.272;2022-08-01T12:27:40;7.23;;;6.53;;
830;SDS011;397;50.564;7.272;2022-08-01T12:30:10;6.63;;;6.03;;
830;SDS011;397;50.564;7.272;2022-08-01T12:32:39;6.47;;;5.40;;
830;SDS011;397;50.564;7.272;2022-08-01T12:35:12;6.13;;;5.53;;
830;SDS011;397;50.564;7.272;2022-08-01T12:37:42;7.90;;;6.17;;
830;SDS011;397;50.564;7.272;2022-08-01T12:40:12;6.87;;;5.57;;
830;SDS011;397;50.564;7.272;2022-08-01T12:42:48;7.70;;;6.30;;
830;SDS011;397;50.564;7.272;2022-08-01T12:45:21;7.10;;;6.37;;
830;SDS011;397;50.564;7.272;2022-08-01T12:47:50;7.00;;;6.30;;
830;SDS011;397;50.564;7.272;2022-08-01T12:50:20;6.43;;;5.60;;
830;SDS011;397;50.564;7.272;2022-08-01T12:52:49;7.10;;;6.37;;
830;SDS011;397;50.564;7.272;2022-08-01T12:55:18;6.73;;;5.40;;
830;SDS011;397;50.564;7.272;2022-08-01T12:57:50;6.20;;;5.70;;
830;SDS011;397;50.564;7.272;2022-08-01T13:00:33;7.20;;;6.50;;
830;SDS011;397;50.564;7.272;2022-08-01T13:03:02;7.10;;;6.03;;
830;SDS011;397;50.564;7.272;2022-08-01T13:05:45;6.30;;;5.80;;
830;SDS011;397;50.564;7.272;2022-08-01T13:08:15;6.37;;;5.77;;
830;SDS011;397;50.564;7.272;2022-08-01T13:10:44;7.87;;;6.60;;
830;SDS011;397;50.564;7.272;2022-08-01T13:13:12;9.53;;;6.77;;
830;SDS011;397;50.564;7.272;2022-08-01T13:15:42;6.60;;;6.00;;
830;SDS011;397;50.564;7.272;2022-08-01T13:24:00;6.13;;;5.60;;
830;SDS011;397;50.564;7.272;2022-08-01T13:29:31;7.90;;;6.00;;
830;SDS011;397;50.564;7.272;2022-08-01T13:32:16;6.33;;;5.10;;
830;SDS011;397;50.564;7.272;2022-08-01T13:34:45;5.40;;;4.70;;
830;SDS011;397;50.564;7.272;2022-08-01T13:37:13;6.40;;;5.50;;
830;SDS011;397;50.564;7.272;2022-08-01T13:39:43;8.80;;;6.10;;
830;SDS011;397;50.564;7.272;2022-08-01T13:42:14;9.23;;;5.30;;
830;SDS011;397;50.564;7.272;2022-08-01T13:44:42;8.87;;;5.70;;
830;SDS011;397;50.564;7.272;2022-08-01T13:47:13;6.37;;;5.63;;
830;SDS011;397;50.564;7.272;2022-08-01T13:49:41;6.27;;;5.13;;
830;SDS011;397;50.564;7.272;2022-08-01T13:52:09;8.37;;;5.30;;
830;SDS011;397;50.564;7.272;2022-08-01T13:54:36;8.50;;;6.27;;
830;SDS011;397;50.564;7.272;2022-08-01T13:57:04;12.93;;;5.90;;
830;SDS011;397;50.564;7.272;2022-08-01T13:59:32;6.23;;;4.93;;
830;SDS011;397;50.564;7.272;2022-08-01T14:01:59;6.30;;;5.70;;
830;SDS011;397;50.564;7.272;2022-08-01T14:04:27;8.90;;;5.00;;
830;SDS011;397;50.564;7.272;2022-08-01T14:06:54;6.67;;;5.50;;
830;SDS011;397;50.564;7.272;2022-08-01T14:09:22;6.07;;;4.67;;
830;SDS011;397;50.564;7.272;2022-08-01T14:11:49;7.40;;;5.50;;
830;SDS011;397;50.564;7.272;2022-08-01T14:14:17;6.57;;;4.80;;
830;SDS011;397;50.564;7.272;2022-08-01T14:16:45;5.53;;;5.03;;
830;SDS011;397;50.564;7.272;2022-08-01T14:19:12;7.73;;;4.97;;
830;SDS011;397;50.564;7.272;2022-08-01T14:21:41;5.60;;;5.10;;
830;SDS011;397;50.564;7.272;2022-08-01T14:24:09;7.10;;;5.40;;
830;SDS011;397;50.564;7.272;2022-08-01T14:26:36;7.37;;;5.27;;
830;SDS011;397;50.564;7.272;2022-08-01T14:29:04;7.07;;;5.63;;
830;SDS011;397;50.564;7.272;2022-08-01T14:31:31;5.13;;;4.70;;
830;SDS011;397;50.564;7.272;2022-08-01T14:33:59;6.37;;;5.87;;
830;SDS011;397;50.564;7.272;2022-08-01T14:36:27;6.27;;;5.63;;
830;SDS011;397;50.564;7.272;2022-08-01T14:38:54;6.80;;;5.97;;
830;SDS011;397;50.564;7.272;2022-08-01T14:41:22;6.53;;;5.93;;
830;SDS011;397;50.564;7.272;2022-08-01T14:43:50;6.73;;;6.10;;
830;SDS011;397;50.564;7.272;2022-08-01T14:46:17;5.97;;;5.10;;
830;SDS011;397;50.564;7.272;2022-08-01T14:48:45;7.40;;;6.70;;
830;SDS011;397;50.564;7.272;2022-08-01T14:51:13;7.90;;;5.10;;
830;SDS011;397;50.564;7.272;2022-08-01T14:53:40;5.43;;;4.90;;
830;SDS011;397;50.564;7.272;2022-08-01T14:56:08;5.10;;;4.60;;
830;SDS011;397;50.564;7.272;2022-08-01T14:58:35;5.30;;;4.37;;
830;SDS011;397;50.564;7.272;2022-08-01T15:01:03;7.13;;;5.50;;
830;SDS011;397;50.564;7.272;2022-08-01T15:03:31;5.40;;;4.20;;
830;SDS011;397;50.564;7.272;2022-08-01T15:05:59;6.27;;;5.03;;
830;SDS011;397;50.564;7.272;2022-08-01T15:08:27;5.73;;;5.23;;
830;SDS011;397;50.564;7.272;2022-08-01T15:10:55;7.10;;;5.07;;
830;SDS011;397;50.564;7.272;2022-08-01T15:13:23;8.83;;;5.30;;
830;SDS011;397;50.564;7.272;2022-08-01T15:15:50;7.00;;;4.57;;
830;SDS011;397;50.564;7.272;2022-08-01T15:18:18;5.40;;;4.90;;
830;SDS011;397;50.564;7.272;2022-08-01T15:20:45;7.50;;;5.10;;
830;SDS011;397;50.564;7.272;2022-08-01T15:23:13;6.40;;;4.73;;
830;SDS011;397;50.564;7.272;2022-08-01T15:25:40;5.53;;;4.60;;
830;SDS011;397;50.564;7.272;2022-08-01T15:28:08;6.10;;;4.80;;
830;SDS011;397;50.564;7.272;2022-08-01T15:30:36;4.97;;;4.43;;
830;SDS011;397;50.564;7.272;2022-08-01T15:33:04;5.67;;;4.27;;
830;SDS011;397;50.564;7.272;2022-08-01T15:35:32;4.50;;;4.10;;
830;SDS011;397;50.564;7.272;2022-08-01T15:37:59;5.47;;;4.17;;
830;SDS011;397;50.564;7.272;2022-08-01T15:40:27;8.60;;;4.17;;
830;SDS011;397;50.564;7.272;2022-08-01T15:42:54;5.00;;;4.50;;
830;SDS011;397;50.564;7.272;2022-08-01T15:45:22;5.23;;;4.37;;
830;SDS011;397;50.564;7.272;2022-08-01T15:47:49;4.47;;;3.60;;
830;SDS011;397;50.564;7.272;2022-08-01T15:50:17;3.23;;;2.90;;
830;SDS011;397;50.564;7.272;2022-08-01T15:52:44;5.20;;;3.97;;
830;SDS011;397;50.564;7.272;2022-08-01T15:55:12;5.13;;;3.60;;
830;SDS011;397;50.564;7.272;2022-08-01T15:57:39;4.43;;;4.03;;
830;SDS011;397;50.564;7.272;2022-08-01T16:00:07;4.37;;;3.83;;
830;SDS011;397;50.564;7.272;2022-08-01T16:02:36;5.23;;;4.27;;
830;SDS011;397;50.564;7.272;2022-08-01T16:05:03;4.30;;;3.90;;
830;SDS011;397;50.564;7.272;2022-08-01T16:07:32;4.50;;;4.07;;
830;SDS011;397;50.564;7.272;2022-08-01T16:09:59;4.63;;;4.10;;
830;SDS011;397;50.564;7.272;2022-08-01T16:12:27;4.93;;;4.13;;
830;SDS011;397;50.564;7.272;2022-08-01T16:14:55;4.90;;;4.40;;
830;SDS011;397;50.564;7.272;2022-08-01T16:17:23;3.80;;;3.40;;
830;SDS011;397;50.564;7.272;2022-08-01T16:19:50;4.53;;;4.07;;
830;SDS011;397;50.564;7.272;2022-08-01T16:22:18;5.60;;;3.80;;
830;SDS011;397;50.564;7.272;2022-08-01T16:24:45;4.57;;;4.07;;
830;SDS011;397;50.564;7.272;2022-08-01T16:27:13;4.03;;;3.63;;
830;SDS011;397;50.564;7.272;2022-08-01T16:29:40;7.73;;;4.00;;
830;SDS011;397;50.564;7.272;2022-08-01T16:32:08;4.67;;;3.77;;
830;SDS011;397;50.564;7.272;2022-08-01T16:34:36;4.47;;;3.23;;
830;SDS011;397;50.564;7.272;2022-08-01T16:37:04;5.87;;;4.30;;
830;SDS011;397;50.564;7.272;2022-08-01T16:39:31;4.40;;;4.00;;
830;SDS011;397;50.564;7.272;2022-08-01T16:41:58;3.90;;;3.50;;
830;SDS011;397;50.564;7.272;2022-08-01T16:44:26;8.23;;;4.03;;
830;SDS011;397;50.564;7.272;2022-08-01T16:46:53;4.50;;;3.13;;
830;SDS011;397;50.564;7.272;2022-08-01T16:49:21;4.47;;;3.90;;
830;SDS011;397;50.564;7.272;2022-08-01T16:51:48;5.27;;;4.40;;
830;SDS011;397;50.564;7.272;2022-08-01T16:54:16;5.53;;;4.10;;